createdAt,value
2022-10-22T00:02:21.551Z,100.00
2022-10-22T00:04:49.690Z,100.00
2022-10-22T00:07:18.123Z,100.00
2022-10-22T00:09:45.263Z,100.00
2022-10-22T00:12:12.579Z,100.00
2022-10-22T00:14:39.774Z,100.00
2022-10-22T00:17:10.567Z,100.00
2022-10-22T00:19:38.363Z,100.00
2022-10-22T00:22:07.856Z,100.00
2022-10-22T00:24:35.322Z,99.38
2022-10-22T00:27:02.498Z,99.04
2022-10-22T00:29:29.427Z,99.34
2022-10-22T00:34:28.279Z,99.38
2022-10-22T00:36:54.949Z,98.98
2022-10-22T00:39:23.986Z,99.07
2022-10-22T00:41:52.775Z,98.86
2022-10-22T00:44:56.974Z,99.07
2022-10-22T00:47:25.394Z,99.19
2022-10-22T00:49:53.757Z,99.02
2022-10-22T00:52:21.662Z,99.38
2022-10-22T00:54:48.793Z,99.52
2022-10-22T00:57:17.119Z,99.97
2022-10-22T00:59:43.866Z,99.82
2022-10-22T01:02:10.505Z,100.00
2022-10-22T01:04:37.331Z,99.81
2022-10-22T01:07:04.398Z,100.00
2022-10-22T01:09:44.602Z,99.71
2022-10-22T01:12:34.725Z,99.74
2022-10-22T01:15:33.580Z,100.00
2022-10-22T01:18:08.111Z,100.00
2022-10-22T01:21:33.206Z,100.00
2022-10-22T01:24:55.211Z,100.00
2022-10-22T01:27:40.056Z,99.53
2022-10-22T01:30:09.569Z,99.45
2022-10-22T01:32:41.599Z,99.82
2022-10-22T01:35:11.205Z,99.77
2022-10-22T01:37:46.476Z,99.93
2022-10-22T01:40:15.942Z,100.00
2022-10-22T01:42:42.931Z,100.00
2022-10-22T01:45:13.598Z,100.00
2022-10-22T01:48:09.590Z,100.00
2022-10-22T01:51:27.195Z,100.00
2022-10-22T01:57:29.838Z,100.00
2022-10-22T02:00:07.759Z,100.00
2022-10-22T02:03:08.870Z,100.00
2022-10-22T02:05:44.435Z,100.00
2022-10-22T02:08:24.316Z,100.00
2022-10-22T02:10:52.665Z,100.00
2022-10-22T02:13:27.773Z,100.00
2022-10-22T02:15:57.026Z,100.00
2022-10-22T02:18:28.089Z,100.00
2022-10-22T02:20:55.158Z,100.00
2022-10-22T02:23:22.151Z,100.00
2022-10-22T02:26:00.210Z,100.00
2022-10-22T02:28:37.639Z,100.00
2022-10-22T02:31:15.949Z,100.00
2022-10-22T02:33:48.195Z,100.00
2022-10-22T02:36:16.542Z,100.00
2022-10-22T02:38:43.510Z,100.00
2022-10-22T02:41:10.526Z,100.00
2022-10-22T02:43:45.547Z,100.00
2022-10-22T02:46:12.458Z,100.00
2022-10-22T02:48:39.044Z,100.00
2022-10-22T02:51:06.073Z,100.00
2022-10-22T02:53:33.225Z,100.00
2022-10-22T02:56:00.227Z,100.00
2022-10-22T02:58:26.803Z,100.00
2022-10-22T03:00:53.427Z,100.00
2022-10-22T03:03:20.066Z,100.00
2022-10-22T03:05:46.658Z,100.00
2022-10-22T03:08:13.335Z,100.00
2022-10-22T03:10:39.865Z,100.00
2022-10-22T03:13:06.432Z,100.00
2022-10-22T03:15:33.238Z,100.00
2022-10-22T03:17:59.827Z,100.00
2022-10-22T03:20:26.903Z,100.00
2022-10-22T03:22:53.629Z,100.00
2022-10-22T03:25:24.008Z,100.00
2022-10-22T03:27:52.434Z,100.00
2022-10-22T03:30:20.432Z,100.00
2022-10-22T03:32:47.153Z,100.00
2022-10-22T03:35:13.749Z,100.00
2022-10-22T03:37:40.928Z,100.00
2022-10-22T03:40:09.033Z,100.00
2022-10-22T03:42:35.612Z,100.00
2022-10-22T03:45:02.403Z,100.00
2022-10-22T03:47:28.980Z,100.00
2022-10-22T03:49:55.571Z,100.00
2022-10-22T03:52:22.343Z,100.00
2022-10-22T03:54:48.919Z,100.00
2022-10-22T03:57:16.038Z,100.00
2022-10-22T03:59:45.094Z,100.00
2022-10-22T04:02:13.039Z,100.00
2022-10-22T04:04:40.166Z,100.00
2022-10-22T04:07:07.575Z,100.00
2022-10-22T04:09:34.665Z,100.00
2022-10-22T04:12:01.349Z,100.00
2022-10-22T04:14:28.074Z,100.00
2022-10-22T04:16:55.116Z,100.00
2022-10-22T04:19:21.722Z,100.00
2022-10-22T04:21:48.515Z,100.00
2022-10-22T04:24:15.452Z,100.00
2022-10-22T04:26:42.389Z,100.00
2022-10-22T04:29:13.397Z,100.00
2022-10-22T04:31:42.610Z,100.00
2022-10-22T04:34:09.374Z,100.00
2022-10-22T04:36:36.000Z,100.00
2022-10-22T04:39:05.243Z,100.00
2022-10-22T04:41:35.236Z,100.00
2022-10-22T04:44:02.547Z,100.00
2022-10-22T04:46:33.273Z,100.00
2022-10-22T04:48:59.979Z,100.00
2022-10-22T04:51:27.881Z,100.00
2022-10-22T04:53:54.869Z,100.00
2022-10-22T04:56:24.950Z,100.00
2022-10-22T04:58:57.327Z,100.00
2022-10-22T05:01:26.441Z,100.00
2022-10-22T05:03:55.547Z,100.00
2022-10-22T05:06:23.358Z,100.00
2022-10-22T05:08:55.577Z,100.00
2022-10-22T05:11:26.124Z,100.00
2022-10-22T05:13:52.972Z,100.00
2022-10-22T05:16:19.539Z,100.00
2022-10-22T05:18:46.342Z,100.00
2022-10-22T05:21:16.282Z,100.00
2022-10-22T05:23:44.984Z,100.00
2022-10-22T05:26:13.311Z,100.00
2022-10-22T05:28:40.458Z,100.00
2022-10-22T05:31:09.119Z,100.00
2022-10-22T05:33:35.697Z,100.00
2022-10-22T05:36:04.425Z,100.00
2022-10-22T05:38:32.467Z,100.00
2022-10-22T05:41:08.268Z,100.00
2022-10-22T05:43:35.820Z,100.00
2022-10-22T05:46:05.510Z,100.00
2022-10-22T05:51:06.039Z,100.00
2022-10-22T05:53:34.471Z,100.00
2022-10-22T05:56:07.201Z,100.00
2022-10-22T05:58:34.151Z,100.00
2022-10-22T06:01:06.260Z,100.00
2022-10-22T06:03:33.250Z,100.00
2022-10-22T06:06:02.975Z,100.00
2022-10-22T06:08:30.612Z,100.00
2022-10-22T06:10:57.781Z,100.00
2022-10-22T06:13:24.383Z,100.00
2022-10-22T06:15:53.521Z,100.00
2022-10-22T06:18:20.151Z,100.00
2022-10-22T06:20:47.684Z,100.00
2022-10-22T06:23:15.331Z,100.00
2022-10-22T06:25:42.672Z,100.00
2022-10-22T06:28:09.674Z,100.00
2022-10-22T06:30:41.804Z,100.00
2022-10-22T06:33:11.023Z,100.00
2022-10-22T06:35:37.635Z,100.00
2022-10-22T06:38:04.279Z,100.00
2022-10-22T06:40:30.825Z,100.00
2022-10-22T06:43:01.960Z,100.00
2022-10-22T06:45:28.962Z,100.00
2022-10-22T06:47:55.830Z,100.00
2022-10-22T06:50:22.467Z,100.00
2022-10-22T06:52:49.047Z,100.00
2022-10-22T06:55:15.824Z,100.00
2022-10-22T06:57:43.052Z,100.00
2022-10-22T07:00:10.613Z,100.00
2022-10-22T07:02:37.227Z,100.00
2022-10-22T07:05:04.036Z,100.00
2022-10-22T07:07:30.683Z,100.00
2022-10-22T07:09:57.498Z,100.00
2022-10-22T07:12:24.080Z,100.00
2022-10-22T07:14:50.743Z,100.00
2022-10-22T07:17:17.305Z,100.00
2022-10-22T07:19:45.303Z,100.00
2022-10-22T07:22:13.956Z,100.00
2022-10-22T07:24:40.494Z,100.00
2022-10-22T07:27:09.444Z,100.00
2022-10-22T07:29:37.613Z,100.00
2022-10-22T07:32:04.544Z,100.00
2022-10-22T07:34:31.384Z,100.00
2022-10-22T07:36:58.168Z,100.00
2022-10-22T07:39:25.883Z,100.00
2022-10-22T07:41:53.075Z,100.00
2022-10-22T07:44:19.717Z,100.00
2022-10-22T07:46:48.855Z,100.00
2022-10-22T07:49:15.688Z,100.00
2022-10-22T07:51:42.341Z,100.00
2022-10-22T07:54:08.982Z,100.00
2022-10-22T07:56:35.579Z,100.00
2022-10-22T08:01:33.855Z,100.00
2022-10-22T08:04:00.542Z,100.00
2022-10-22T08:06:27.182Z,100.00
2022-10-22T08:08:53.827Z,100.00
2022-10-22T08:11:20.667Z,100.00
2022-10-22T08:13:47.363Z,100.00
2022-10-22T08:16:15.194Z,100.00
2022-10-22T08:18:42.074Z,100.00
2022-10-22T08:21:08.748Z,100.00
2022-10-22T08:23:35.617Z,100.00
2022-10-22T08:26:03.096Z,100.00
2022-10-22T08:28:31.224Z,100.00
2022-10-22T08:30:57.869Z,100.00
2022-10-22T08:43:54.888Z,74.65
2022-10-22T08:46:54.366Z,73.08
2022-10-22T08:49:26.186Z,73.67
2022-10-22T08:51:53.361Z,75.46
2022-10-22T08:54:59.363Z,73.76
2022-10-22T08:58:16.157Z,69.92
2022-10-22T09:00:47.683Z,67.31
2022-10-22T09:03:56.207Z,65.28
2022-10-22T09:06:25.949Z,64.18
2022-10-22T09:08:53.884Z,62.88
2022-10-22T09:11:32.520Z,62.80
2022-10-22T09:14:00.602Z,66.05
2022-10-22T09:17:02.141Z,68.51
2022-10-22T09:19:40.019Z,70.01
2022-10-22T09:23:17.067Z,71.16
2022-10-22T09:25:45.450Z,71.98
2022-10-22T09:28:12.791Z,72.50
2022-10-22T09:30:42.535Z,70.78
2022-10-22T09:33:31.591Z,72.10
2022-10-22T09:36:04.567Z,71.94
2022-10-22T09:38:39.942Z,71.27
2022-10-22T09:41:09.590Z,71.70
2022-10-22T09:43:36.575Z,70.86
2022-10-22T09:46:14.370Z,71.42
2022-10-22T09:48:43.277Z,71.48
2022-10-22T09:51:48.177Z,72.66
2022-10-22T09:54:26.844Z,72.07
2022-10-22T09:57:03.182Z,72.71
2022-10-22T09:59:32.771Z,73.73
2022-10-22T10:02:13.725Z,74.12
2022-10-22T10:04:52.300Z,73.99
2022-10-22T10:07:30.106Z,73.85
2022-10-22T10:09:57.279Z,74.75
2022-10-22T10:15:47.117Z,74.93
2022-10-22T10:18:47.482Z,75.15
2022-10-22T10:21:56.374Z,75.35
2022-10-22T10:24:37.797Z,76.39
2022-10-22T10:27:44.945Z,76.50
2022-10-22T10:30:21.174Z,75.63
2022-10-22T10:33:26.606Z,75.72
2022-10-22T10:36:39.597Z,75.99
2022-10-22T10:39:55.160Z,75.93
2022-10-22T10:42:36.973Z,75.81
2022-10-22T10:45:37.727Z,75.62
2022-10-22T10:54:49.788Z,76.40
2022-10-22T11:00:55.501Z,75.42
2022-10-22T11:03:58.594Z,75.05
2022-10-22T11:06:26.638Z,76.22
2022-10-22T11:11:59.543Z,75.82
2022-10-22T11:15:18.314Z,75.39
2022-10-22T11:17:48.131Z,76.85
2022-10-22T11:27:04.694Z,77.04
2022-10-22T11:29:39.221Z,76.50
2022-10-22T11:32:10.870Z,76.22
2022-10-22T11:34:54.615Z,76.53
2022-10-22T11:37:24.129Z,76.72
2022-10-22T11:40:05.481Z,77.00
2022-10-22T11:42:37.254Z,76.34
2022-10-22T11:45:28.729Z,75.89
2022-10-22T11:48:19.351Z,75.65
2022-10-22T11:51:04.067Z,77.64
2022-10-22T11:53:39.134Z,77.80
2022-10-22T11:56:37.264Z,77.55
2022-10-22T11:59:08.010Z,76.26
2022-10-22T12:01:42.765Z,76.31
2022-10-22T12:04:22.015Z,76.16
2022-10-22T12:07:31.723Z,76.43
2022-10-22T12:09:58.814Z,75.72
2022-10-22T12:12:25.638Z,76.52
2022-10-22T12:14:57.990Z,76.71
2022-10-22T12:17:25.199Z,77.00
2022-10-22T12:20:02.479Z,77.24
2022-10-22T12:22:32.248Z,76.93
2022-10-22T12:25:09.917Z,77.67
2022-10-22T12:27:39.492Z,78.04
2022-10-22T12:30:24.322Z,77.17
2022-10-22T12:32:57.495Z,77.43
2022-10-22T12:35:26.697Z,77.96
2022-10-22T12:38:13.129Z,77.15
2022-10-22T12:40:45.774Z,78.62
2022-10-22T12:43:17.479Z,78.52
2022-10-22T12:45:46.266Z,78.66
2022-10-22T12:48:28.354Z,78.03
2022-10-22T12:50:58.602Z,78.17
2022-10-22T12:53:32.481Z,78.19
2022-10-22T12:56:07.600Z,77.49
2022-10-22T12:58:51.715Z,78.36
2022-10-22T13:01:19.005Z,78.25
2022-10-22T13:03:51.093Z,78.22
2022-10-22T13:06:26.213Z,77.38
2022-10-22T13:09:15.161Z,77.71
2022-10-22T13:11:49.853Z,77.35
2022-10-22T13:14:38.240Z,77.86
2022-10-22T13:17:38.809Z,77.92
2022-10-22T13:20:20.907Z,78.11
2022-10-22T13:23:02.759Z,77.92
2022-10-22T13:25:31.967Z,77.75
2022-10-22T13:28:16.432Z,78.02
2022-10-22T13:30:56.688Z,79.19
2022-10-22T13:33:32.415Z,79.36
2022-10-22T13:35:59.114Z,79.50
2022-10-22T13:38:27.505Z,78.56
2022-10-22T13:40:54.562Z,79.41
2022-10-22T13:43:21.602Z,78.47
2022-10-22T13:45:51.849Z,76.41
2022-10-22T13:48:21.947Z,74.68
2022-10-22T13:50:49.743Z,72.77
2022-10-22T13:53:20.841Z,71.67
2022-10-22T13:55:47.727Z,70.74
2022-10-22T14:00:56.935Z,69.33
2022-10-22T14:03:31.939Z,69.15
2022-10-22T14:05:58.961Z,68.63
2022-10-22T14:08:27.283Z,68.30
2022-10-22T14:10:54.969Z,68.04
2022-10-22T14:13:22.425Z,67.33
2022-10-22T14:15:51.003Z,67.27
2022-10-22T14:18:29.018Z,67.12
2022-10-22T14:20:58.332Z,66.83
2022-10-22T14:23:28.760Z,66.49
2022-10-22T14:25:56.054Z,66.48
2022-10-22T14:28:22.687Z,66.10
2022-10-22T14:30:50.460Z,66.17
2022-10-22T14:33:28.863Z,68.02
2022-10-22T14:35:59.813Z,69.88
2022-10-22T14:38:29.554Z,71.49
2022-10-22T14:40:56.595Z,72.04
2022-10-22T14:43:25.810Z,72.47
2022-10-22T14:45:52.583Z,72.64
2022-10-22T14:50:51.360Z,73.14
2022-10-22T14:53:18.059Z,73.01
2022-10-22T14:55:47.183Z,72.92
2022-10-22T14:58:15.354Z,73.24
2022-10-22T15:00:43.837Z,73.38
2022-10-22T15:03:11.569Z,73.38
2022-10-22T15:05:44.932Z,73.94
2022-10-22T15:08:13.157Z,73.78
2022-10-22T15:10:40.231Z,74.45
2022-10-22T15:13:07.132Z,74.79
2022-10-22T15:15:35.434Z,74.35
2022-10-22T15:18:04.462Z,74.02
2022-10-22T15:20:31.289Z,74.06
2022-10-22T15:22:57.876Z,74.08
2022-10-22T15:25:24.480Z,74.27
2022-10-22T15:27:52.493Z,74.21
2022-10-22T15:30:20.814Z,74.35
2022-10-22T15:32:47.618Z,73.88
2022-10-22T15:35:14.409Z,74.38
2022-10-22T15:37:41.175Z,74.43
2022-10-22T15:40:08.770Z,74.39
2022-10-22T15:42:35.905Z,74.51
2022-10-22T15:45:02.746Z,74.55
2022-10-22T15:47:31.154Z,74.84
2022-10-22T15:49:58.096Z,75.05
2022-10-22T15:52:24.777Z,74.92
2022-10-22T15:54:51.367Z,75.17
2022-10-22T15:57:18.094Z,74.80
2022-10-22T15:59:44.673Z,74.48
2022-10-22T16:02:12.798Z,74.59
2022-10-22T16:04:39.608Z,74.44
2022-10-22T16:07:06.765Z,74.56
2022-10-22T16:09:33.551Z,74.87
2022-10-22T16:12:00.846Z,74.85
2022-10-22T16:14:28.896Z,74.76
2022-10-22T16:16:58.175Z,74.49
2022-10-22T16:19:26.188Z,74.81
2022-10-22T16:21:55.517Z,74.90
2022-10-22T16:24:23.077Z,74.88
2022-10-22T16:26:49.957Z,74.87
2022-10-22T16:29:16.576Z,74.91
2022-10-22T16:31:44.038Z,74.37
2022-10-22T16:34:11.871Z,74.82
2022-10-22T16:36:39.051Z,75.17
2022-10-22T16:39:07.930Z,74.96
2022-10-22T16:41:37.397Z,74.91
2022-10-22T16:44:07.671Z,74.53
2022-10-22T16:46:38.566Z,74.58
2022-10-22T16:49:08.803Z,74.17
2022-10-22T16:51:45.396Z,74.41
2022-10-22T16:54:22.195Z,74.47
2022-10-22T16:56:50.836Z,74.63
2022-10-22T16:59:18.924Z,75.06
2022-10-22T17:01:48.605Z,75.33
2022-10-22T17:04:18.930Z,75.28
2022-10-22T17:06:51.228Z,75.05
2022-10-22T17:09:30.651Z,74.62
2022-10-22T17:12:00.113Z,74.91
2022-10-22T17:14:27.449Z,75.26
2022-10-22T17:16:56.832Z,74.88
2022-10-22T17:19:27.159Z,74.55
2022-10-22T17:21:54.586Z,74.53
2022-10-22T17:24:21.242Z,74.73
2022-10-22T17:26:47.810Z,73.96
2022-10-22T17:29:14.370Z,72.36
2022-10-22T17:31:41.395Z,70.81
2022-10-22T17:34:14.695Z,69.95
2022-10-22T17:36:42.117Z,69.01
2022-10-22T17:39:11.173Z,68.65
2022-10-22T17:41:37.839Z,68.20
2022-10-22T17:44:06.883Z,67.91
2022-10-22T17:46:33.501Z,68.57
2022-10-22T17:49:03.660Z,67.98
2022-10-22T17:51:31.231Z,67.91
2022-10-22T17:53:57.873Z,67.54
2022-10-22T17:56:27.253Z,67.41
2022-10-22T17:58:54.573Z,67.17
2022-10-22T18:01:24.973Z,66.90
2022-10-22T18:03:52.868Z,66.73
2022-10-22T18:06:19.975Z,66.46
2022-10-22T18:08:46.705Z,66.25
2022-10-22T18:11:18.301Z,66.10
2022-10-22T18:13:45.050Z,65.93
2022-10-22T18:16:12.446Z,65.76
2022-10-22T18:18:39.054Z,65.60
2022-10-22T18:21:06.114Z,65.24
2022-10-22T18:23:33.450Z,65.47
2022-10-22T18:26:00.251Z,65.20
2022-10-22T18:28:26.831Z,65.08
2022-10-22T18:30:53.457Z,64.91
2022-10-22T18:33:23.971Z,64.90
2022-10-22T18:35:54.770Z,64.62
2022-10-22T18:38:24.595Z,64.47
2022-10-22T18:40:51.147Z,64.49
2022-10-22T18:43:17.918Z,64.27
2022-10-22T18:45:48.398Z,64.26
2022-10-22T18:48:17.653Z,64.21
2022-10-22T18:50:44.934Z,64.19
2022-10-22T18:53:13.445Z,64.13
2022-10-22T18:55:40.538Z,63.95
2022-10-22T18:58:07.304Z,63.92
2022-10-22T19:00:36.033Z,64.01
2022-10-22T19:03:03.338Z,63.87
2022-10-22T19:05:30.045Z,63.80
2022-10-22T19:07:56.689Z,63.69
2022-10-22T19:10:23.467Z,63.77
2022-10-22T19:12:50.186Z,63.66
2022-10-22T19:15:18.628Z,63.59
2022-10-22T19:17:45.398Z,63.37
2022-10-22T19:20:13.185Z,63.39
2022-10-22T19:22:39.930Z,63.46
2022-10-22T19:25:09.743Z,63.35
2022-10-22T19:27:39.710Z,63.26
2022-10-22T19:30:07.404Z,63.02
2022-10-22T19:32:34.523Z,63.15
2022-10-22T19:35:01.430Z,62.94
2022-10-22T19:37:28.144Z,62.90
2022-10-22T19:39:54.906Z,62.92
2022-10-22T19:42:21.703Z,62.84
2022-10-22T19:44:54.370Z,63.05
2022-10-22T19:47:21.890Z,62.82
2022-10-22T19:49:48.488Z,62.73
2022-10-22T19:52:15.139Z,62.92
2022-10-22T19:54:44.576Z,62.95
2022-10-22T19:57:15.079Z,62.96
2022-10-22T19:59:41.755Z,62.79
2022-10-22T20:02:13.018Z,62.82
2022-10-22T20:04:40.231Z,62.89
2022-10-22T20:07:06.781Z,62.82
2022-10-22T20:09:33.396Z,63.08
2022-10-22T20:12:00.370Z,62.85
2022-10-22T20:14:26.940Z,63.04
2022-10-22T20:16:53.784Z,62.83
2022-10-22T20:19:20.522Z,63.11
2022-10-22T20:21:49.029Z,63.10
2022-10-22T20:24:16.084Z,63.20
2022-10-22T20:26:46.169Z,63.34
2022-10-22T20:29:14.820Z,63.18
2022-10-22T20:31:41.502Z,63.34
2022-10-22T20:34:09.271Z,63.05
2022-10-22T20:36:36.085Z,63.29
2022-10-22T20:39:10.362Z,63.28
2022-10-22T20:41:39.157Z,63.20
2022-10-22T20:44:06.914Z,63.14
2022-10-22T20:46:34.734Z,63.09
2022-10-22T20:49:07.133Z,62.68
2022-10-22T20:51:35.210Z,62.80
2022-10-22T20:54:02.042Z,62.75
2022-10-22T20:56:28.834Z,62.61
2022-10-22T20:59:04.708Z,62.60
2022-10-22T21:01:34.014Z,62.50
2022-10-22T21:04:00.604Z,62.49
2022-10-22T21:06:28.894Z,62.27
2022-10-22T21:08:55.617Z,62.39
2022-10-22T21:11:25.425Z,62.22
2022-10-22T21:13:52.241Z,62.15
2022-10-22T21:16:19.696Z,62.18
2022-10-22T21:18:47.198Z,62.24
2022-10-22T21:21:14.370Z,62.27
2022-10-22T21:23:40.955Z,62.47
2022-10-22T21:26:08.222Z,62.46
2022-10-22T21:28:36.773Z,62.20
2022-10-22T21:31:09.230Z,62.46
2022-10-22T21:33:39.432Z,62.58
2022-10-22T21:36:08.962Z,62.67
2022-10-22T21:38:36.800Z,62.42
2022-10-22T21:41:12.076Z,62.53
2022-10-22T21:43:40.211Z,62.63
2022-10-22T21:46:21.734Z,63.01
2022-10-22T21:48:56.127Z,62.57
2022-10-22T21:51:24.428Z,62.58
2022-10-22T21:56:21.896Z,62.62
2022-10-22T21:58:48.870Z,62.54
2022-10-22T22:01:16.620Z,62.71
2022-10-22T22:03:45.561Z,62.70
2022-10-22T22:06:13.219Z,62.62
2022-10-22T22:08:40.198Z,62.75
2022-10-22T22:11:12.638Z,62.83
2022-10-22T22:13:39.594Z,62.65
2022-10-22T22:16:21.210Z,62.51
2022-10-22T22:18:50.578Z,62.64
2022-10-22T22:21:19.443Z,62.77
2022-10-22T22:23:48.385Z,62.67
2022-10-22T22:26:17.359Z,62.76
2022-10-22T22:28:44.156Z,62.71
2022-10-22T22:31:28.491Z,62.87
2022-10-22T22:33:59.650Z,62.75
2022-10-22T22:36:26.303Z,63.13
2022-10-22T22:38:56.689Z,62.74
2022-10-22T22:41:23.385Z,62.94
2022-10-22T22:43:50.175Z,62.91
2022-10-22T22:46:17.313Z,62.76
2022-10-22T22:48:44.248Z,62.98
2022-10-22T22:51:11.262Z,63.00
2022-10-22T22:53:38.278Z,62.85
2022-10-22T22:56:10.673Z,62.78
2022-10-22T22:58:40.501Z,63.07
2022-10-22T23:01:15.212Z,62.92
2022-10-22T23:03:42.945Z,62.87
2022-10-22T23:06:09.605Z,62.93
2022-10-22T23:08:36.302Z,62.95
2022-10-22T23:11:08.913Z,62.89
2022-10-22T23:13:36.379Z,62.99
2022-10-22T23:16:13.024Z,62.91
2022-10-22T23:18:39.918Z,62.82
2022-10-22T23:21:10.686Z,62.90
2022-10-22T23:23:37.486Z,62.73
2022-10-22T23:26:04.313Z,62.96
2022-10-22T23:28:31.107Z,62.91
2022-10-22T23:30:57.728Z,63.16
2022-10-22T23:33:24.306Z,63.00
2022-10-22T23:35:51.081Z,62.90
2022-10-22T23:38:17.734Z,62.81
2022-10-22T23:40:44.319Z,63.02
2022-10-22T23:43:10.893Z,62.98
2022-10-22T23:45:37.513Z,62.90
2022-10-22T23:48:04.524Z,62.94
2022-10-22T23:50:31.196Z,62.98
2022-10-22T23:52:57.851Z,63.15
2022-10-22T23:55:24.442Z,62.84
2022-10-22T23:57:51.028Z,62.93
